createdAt,value
2022-08-10T00:00:38.640Z,17.90
2022-08-10T00:03:07.971Z,17.80
2022-08-10T00:05:43.403Z,17.90
2022-08-10T00:08:22.512Z,18.00
2022-08-10T00:10:52.363Z,17.90
2022-08-10T00:13:19.404Z,17.90
2022-08-10T00:15:53.821Z,17.90
2022-08-10T00:18:34.301Z,17.90
2022-08-10T00:21:04.663Z,17.90
2022-08-10T00:23:31.516Z,17.80
2022-08-10T00:25:58.431Z,17.80
2022-08-10T00:28:25.680Z,17.90
2022-08-10T00:30:52.777Z,17.80
2022-08-10T00:33:21.051Z,17.80
2022-08-10T00:35:48.919Z,17.80
2022-08-10T00:38:15.781Z,17.80
2022-08-10T00:40:42.871Z,17.80
2022-08-10T00:43:09.867Z,17.70
2022-08-10T00:45:37.669Z,17.70
2022-08-10T00:48:04.869Z,17.70
2022-08-10T00:50:32.129Z,17.70
2022-08-10T00:52:59.582Z,17.70
2022-08-10T00:55:27.305Z,17.70
2022-08-10T00:57:55.929Z,17.60
2022-08-10T01:00:24.963Z,17.50
2022-08-10T01:02:52.392Z,17.50
2022-08-10T01:05:20.692Z,17.40
2022-08-10T01:07:53.803Z,17.30
2022-08-10T01:10:34.888Z,17.40
2022-08-10T01:13:18.475Z,17.30
2022-08-10T01:16:22.982Z,17.40
2022-08-10T01:19:04.935Z,17.50
2022-08-10T01:21:56.924Z,17.40
2022-08-10T01:24:39.034Z,17.40
2022-08-10T01:27:11.939Z,17.40
2022-08-10T01:29:57.760Z,17.40
2022-08-10T01:32:53.676Z,17.40
2022-08-10T01:35:28.671Z,17.30
2022-08-10T01:38:12.011Z,17.40
2022-08-10T01:40:51.807Z,17.30
2022-08-10T01:43:20.879Z,17.30
2022-08-10T01:45:53.573Z,17.20
2022-08-10T01:48:31.573Z,17.10
2022-08-10T01:51:14.524Z,17.10
2022-08-10T01:54:03.648Z,17.10
2022-08-10T01:56:37.600Z,17.10
2022-08-10T01:59:19.999Z,17.00
2022-08-10T02:01:50.860Z,17.00
2022-08-10T02:04:19.698Z,17.00
2022-08-10T02:06:50.280Z,16.90
2022-08-10T02:09:27.496Z,16.90
2022-08-10T02:12:06.965Z,16.90
2022-08-10T02:14:47.823Z,16.80
2022-08-10T02:17:59.562Z,16.80
2022-08-10T02:20:11.246Z,16.80
2022-08-10T02:22:40.514Z,16.80
2022-08-10T02:25:09.023Z,16.80
2022-08-10T02:27:37.162Z,16.90
2022-08-10T02:30:06.572Z,16.80
2022-08-10T02:32:38.175Z,16.80
2022-08-10T02:35:13.935Z,16.80
2022-08-10T02:37:51.770Z,16.90
2022-08-10T02:45:12.565Z,16.80
2022-08-10T02:45:22.446Z,16.90
2022-08-10T02:46:20.951Z,16.80
2022-08-10T02:48:56.096Z,16.80
2022-08-10T02:52:07.709Z,16.80
2022-08-10T02:54:24.241Z,16.80
2022-08-10T02:56:56.442Z,16.70
2022-08-10T02:59:39.883Z,16.70
2022-08-10T03:02:12.424Z,16.70
2022-08-10T03:04:55.914Z,16.60
2022-08-10T03:07:43.152Z,16.60
2022-08-10T03:10:24.908Z,16.60
2022-08-10T03:13:00.643Z,16.60
2022-08-10T03:15:32.934Z,16.70
2022-08-10T03:18:00.979Z,16.70
2022-08-10T03:20:37.336Z,16.70
2022-08-10T03:23:12.894Z,16.70
2022-08-10T03:25:40.662Z,16.70
2022-08-10T03:28:08.479Z,16.70
2022-08-10T03:30:35.964Z,16.70
2022-08-10T03:33:07.756Z,16.70
2022-08-10T03:35:35.161Z,16.70
2022-08-10T03:38:02.551Z,16.80
2022-08-10T03:40:45.552Z,16.80
2022-08-10T03:43:24.132Z,16.80
2022-08-10T03:45:56.640Z,16.90
2022-08-10T03:48:44.610Z,17.00
2022-08-10T03:51:17.592Z,17.10
2022-08-10T03:54:03.661Z,17.10
2022-08-10T03:56:33.169Z,17.20
2022-08-10T03:59:01.422Z,17.20
2022-08-10T04:02:43.627Z,17.20
2022-08-10T04:04:22.872Z,17.30
2022-08-10T04:06:55.253Z,17.20
2022-08-10T04:09:43.006Z,17.30
2022-08-10T04:12:15.028Z,17.30
2022-08-10T04:14:50.728Z,17.30
2022-08-10T04:18:00.186Z,17.30
2022-08-10T04:20:34.627Z,17.30
2022-08-10T04:23:05.219Z,17.30
2022-08-10T04:25:32.716Z,17.30
2022-08-10T04:28:00.234Z,17.40
2022-08-10T04:30:29.399Z,17.50
2022-08-10T04:32:59.665Z,17.50
2022-08-10T04:35:29.831Z,17.50
2022-08-10T04:37:58.142Z,17.60
2022-08-10T04:40:29.165Z,17.60
2022-08-10T04:43:10.484Z,17.60
2022-08-10T04:45:48.612Z,17.60
2022-08-10T04:48:42.990Z,17.70
2022-08-10T04:51:19.349Z,17.80
2022-08-10T04:54:06.124Z,17.80
2022-08-10T04:56:35.210Z,17.90
2022-08-10T04:59:02.160Z,17.90
2022-08-10T05:02:22.377Z,17.90
2022-08-10T05:04:35.811Z,17.90
2022-08-10T05:07:08.679Z,17.90
2022-08-10T05:10:03.081Z,17.80
2022-08-10T05:12:23.152Z,17.90
2022-08-10T05:14:52.165Z,17.80
2022-08-10T05:17:19.849Z,17.90
2022-08-10T05:20:02.792Z,17.90
2022-08-10T05:22:32.975Z,17.90
2022-08-10T05:24:59.848Z,17.90
2022-08-10T05:27:26.726Z,17.90
2022-08-10T05:30:02.350Z,18.00
2022-08-10T05:32:31.745Z,18.10
2022-08-10T05:34:58.809Z,18.10
2022-08-10T05:38:09.348Z,18.20
2022-08-10T05:40:13.853Z,18.30
2022-08-10T05:42:42.206Z,18.30
2022-08-10T05:45:26.174Z,18.30
2022-08-10T05:48:54.601Z,18.40
2022-08-10T05:50:41.150Z,18.50
2022-08-10T05:53:58.764Z,18.60
2022-08-10T05:55:56.308Z,18.50
2022-08-10T05:58:23.698Z,18.60
2022-08-10T06:00:54.675Z,18.60
2022-08-10T06:03:30.046Z,18.50
2022-08-10T06:05:59.188Z,18.60
2022-08-10T06:08:31.480Z,18.60
2022-08-10T06:12:26.667Z,18.50
2022-08-10T06:14:13.370Z,18.50
2022-08-10T06:16:44.686Z,18.50
2022-08-10T06:19:15.510Z,18.60
2022-08-10T06:21:53.632Z,18.50
2022-08-10T06:24:32.208Z,18.50
2022-08-10T06:26:59.744Z,18.60
2022-08-10T06:29:29.840Z,18.60
2022-08-10T06:31:57.613Z,18.80
2022-08-10T06:34:45.834Z,18.80
2022-08-10T06:37:15.634Z,18.90
2022-08-10T06:39:43.668Z,19.10
2022-08-10T06:42:31.505Z,19.20
2022-08-10T06:45:03.308Z,19.20
2022-08-10T06:47:45.069Z,19.50
2022-08-10T06:50:45.450Z,19.40
2022-08-10T06:53:17.413Z,19.40
2022-08-10T06:55:56.808Z,19.70
2022-08-10T06:58:34.477Z,20.20
2022-08-10T07:01:05.479Z,21.20
2022-08-10T07:03:38.644Z,21.90
2022-08-10T07:06:08.232Z,21.50
2022-08-10T07:08:36.896Z,21.60
2022-08-10T07:11:09.967Z,21.30
2022-08-10T07:14:16.732Z,21.70
2022-08-10T07:16:28.741Z,22.10
2022-08-10T07:18:58.048Z,22.00
2022-08-10T07:21:27.298Z,21.80
2022-08-10T07:24:00.551Z,21.80
2022-08-10T07:26:30.409Z,21.90
2022-08-10T07:28:58.290Z,21.70
2022-08-10T07:31:33.090Z,21.50
2022-08-10T07:34:24.715Z,21.20
2022-08-10T07:37:01.504Z,20.90
2022-08-10T07:39:58.396Z,20.70
2022-08-10T07:42:25.556Z,20.70
2022-08-10T07:44:52.804Z,20.60
2022-08-10T07:47:52.595Z,20.60
2022-08-10T07:50:21.195Z,20.70
2022-08-10T07:52:49.030Z,20.60
2022-08-10T07:55:18.645Z,20.50
2022-08-10T07:57:49.834Z,20.30
2022-08-10T08:00:18.121Z,20.20
2022-08-10T08:02:49.979Z,20.20
2022-08-10T08:05:57.338Z,20.10
2022-08-10T08:08:07.781Z,20.20
2022-08-10T08:10:37.613Z,20.30
2022-08-10T08:13:05.555Z,20.30
2022-08-10T08:16:20.404Z,20.30
2022-08-10T08:18:25.361Z,20.50
2022-08-10T08:20:54.469Z,20.60
2022-08-10T08:24:08.636Z,20.50
2022-08-10T08:26:11.613Z,20.70
2022-08-10T08:28:43.608Z,20.90
2022-08-10T08:31:10.884Z,21.40
2022-08-10T08:33:41.318Z,21.40
2022-08-10T08:36:10.956Z,21.70
2022-08-10T08:38:39.053Z,21.70
2022-08-10T08:41:38.546Z,21.80
2022-08-10T08:44:08.433Z,22.50
2022-08-10T08:46:59.156Z,22.60
2022-08-10T08:50:08.234Z,22.30
2022-08-10T08:52:53.739Z,22.60
2022-08-10T08:56:04.580Z,22.70
2022-08-10T08:58:36.390Z,22.90
2022-08-10T09:01:18.742Z,23.10
2022-08-10T09:04:19.606Z,22.70
2022-08-10T09:07:59.538Z,22.70
2022-08-10T09:10:37.590Z,22.70
2022-08-10T09:13:07.790Z,23.00
2022-08-10T09:15:51.586Z,23.30
2022-08-10T09:18:31.789Z,23.50
2022-08-10T09:21:13.533Z,23.40
2022-08-10T09:24:11.580Z,23.60
2022-08-10T09:26:45.790Z,23.90
2022-08-10T09:29:19.521Z,23.90
2022-08-10T09:33:05.321Z,23.60
2022-08-10T09:36:21.166Z,23.50
2022-08-10T09:38:13.304Z,23.30
2022-08-10T09:41:18.553Z,23.30
2022-08-10T09:43:57.268Z,23.40
2022-08-10T09:46:48.339Z,23.00
2022-08-10T09:49:53.533Z,22.90
2022-08-10T09:52:43.945Z,22.70
2022-08-10T09:56:19.251Z,22.70
2022-08-10T09:58:20.834Z,22.70
2022-08-10T10:01:22.407Z,22.70
2022-08-10T10:04:30.976Z,22.60
2022-08-10T10:07:07.286Z,22.60
2022-08-10T10:10:02.392Z,22.70
2022-08-10T10:12:54.666Z,22.70
2022-08-10T10:15:36.353Z,22.70
2022-08-10T10:18:03.254Z,22.80
2022-08-10T10:20:50.613Z,23.10
2022-08-10T10:24:05.606Z,23.30
2022-08-10T10:26:56.111Z,23.30
2022-08-10T10:29:57.073Z,23.40
2022-08-10T10:32:25.963Z,23.40
2022-08-10T10:35:23.646Z,23.20
2022-08-10T10:38:10.563Z,23.30
2022-08-10T10:41:01.885Z,23.60
2022-08-10T10:43:40.839Z,23.70
2022-08-10T10:46:23.870Z,23.60
2022-08-10T10:49:24.369Z,23.70
2022-08-10T10:52:13.315Z,24.00
2022-08-10T10:54:47.535Z,24.20
2022-08-10T10:58:00.455Z,23.90
2022-08-10T11:00:26.213Z,24.00
2022-08-10T11:03:19.425Z,24.10
2022-08-10T11:06:45.469Z,24.30
2022-08-10T11:10:04.588Z,24.50
2022-08-10T11:12:26.264Z,24.90
2022-08-10T11:14:59.020Z,25.10
2022-08-10T11:17:33.434Z,25.00
2022-08-10T11:20:12.464Z,24.80
2022-08-10T11:22:53.160Z,25.20
2022-08-10T11:25:30.894Z,25.20
2022-08-10T11:28:04.268Z,25.00
2022-08-10T11:30:50.440Z,25.40
2022-08-10T11:34:04.142Z,25.30
2022-08-10T11:36:43.109Z,25.40
2022-08-10T11:39:48.541Z,25.00
2022-08-10T11:42:40.716Z,25.20
2022-08-10T11:45:17.564Z,25.20
2022-08-10T11:47:51.685Z,25.30
2022-08-10T11:50:51.608Z,25.30
2022-08-10T11:53:54.105Z,25.40
2022-08-10T11:56:52.745Z,25.50
2022-08-10T11:59:43.428Z,26.00
2022-08-10T12:02:14.921Z,26.00
2022-08-10T12:04:47.845Z,25.80
2022-08-10T12:10:08.871Z,25.80
2022-08-10T12:10:13.557Z,25.80
2022-08-10T12:13:09.665Z,25.80
2022-08-10T12:15:43.923Z,26.20
2022-08-10T12:18:17.296Z,25.90
2022-08-10T12:20:48.723Z,26.50
2022-08-10T12:23:31.609Z,27.00
2022-08-10T12:26:13.943Z,26.80
2022-08-10T12:28:50.187Z,27.50
2022-08-10T12:31:25.308Z,27.20
2022-08-10T12:34:24.256Z,26.90
2022-08-10T12:37:01.438Z,26.10
2022-08-10T12:39:34.948Z,26.80
2022-08-10T12:42:38.837Z,26.90
2022-08-10T12:45:16.167Z,26.90
2022-08-10T12:47:58.291Z,27.00
2022-08-10T12:50:41.942Z,27.70
2022-08-10T12:53:40.874Z,28.20
2022-08-10T12:56:08.166Z,28.10
2022-08-10T12:58:57.932Z,27.90
2022-08-10T13:01:27.691Z,28.20
2022-08-10T13:04:22.280Z,28.40
2022-08-10T13:06:52.336Z,28.20
2022-08-10T13:09:23.928Z,28.20
2022-08-10T13:12:38.433Z,28.60
2022-08-10T13:14:58.214Z,28.70
2022-08-10T13:17:40.175Z,28.90
2022-08-10T13:20:26.432Z,28.90
2022-08-10T13:22:56.934Z,28.70
2022-08-10T13:25:32.099Z,29.00
2022-08-10T13:28:35.693Z,29.30
2022-08-10T13:30:52.808Z,29.50
2022-08-10T13:34:39.289Z,29.00
2022-08-10T13:36:20.608Z,29.50
2022-08-10T13:38:49.201Z,29.00
2022-08-10T13:41:18.446Z,28.60
2022-08-10T13:43:57.548Z,28.60
2022-08-10T13:46:24.716Z,28.50
2022-08-10T13:48:55.920Z,28.50
2022-08-10T13:51:53.931Z,28.90
2022-08-10T13:54:19.399Z,29.00
2022-08-10T13:56:49.051Z,28.60
2022-08-10T13:59:17.550Z,28.90
2022-08-10T14:01:52.538Z,28.60
2022-08-10T14:04:20.238Z,28.20
2022-08-10T14:06:55.269Z,27.90
2022-08-10T14:09:32.314Z,27.70
2022-08-10T14:12:01.996Z,28.00
2022-08-10T14:14:31.124Z,27.90
2022-08-10T14:17:00.304Z,27.70
2022-08-10T14:19:30.796Z,27.80
2022-08-10T14:21:58.353Z,28.20
2022-08-10T14:24:28.519Z,28.20
2022-08-10T14:27:04.266Z,28.40
2022-08-10T14:29:33.337Z,28.30
2022-08-10T14:32:07.186Z,28.10
2022-08-10T14:36:14.961Z,28.60
2022-08-10T14:37:37.463Z,28.50
2022-08-10T14:40:21.013Z,28.40
2022-08-10T14:42:52.774Z,27.80
2022-08-10T14:45:35.725Z,27.70
2022-08-10T14:48:13.343Z,27.40
2022-08-10T14:50:55.731Z,28.20
2022-08-10T14:53:37.539Z,28.10
2022-08-10T14:56:11.475Z,28.30
2022-08-10T14:59:05.354Z,28.60
2022-08-10T15:02:00.372Z,28.70
2022-08-10T15:04:28.549Z,28.50
2022-08-10T15:07:03.331Z,28.80
2022-08-10T15:10:00.944Z,28.80
2022-08-10T15:12:37.040Z,28.80
2022-08-10T15:15:08.660Z,28.70
2022-08-10T15:17:40.710Z,28.40
2022-08-10T15:20:20.332Z,28.10
2022-08-10T15:23:08.654Z,27.90
2022-08-10T15:25:59.597Z,27.70
2022-08-10T15:28:37.171Z,28.10
2022-08-10T15:31:23.658Z,28.30
2022-08-10T15:34:11.456Z,28.20
2022-08-10T15:37:40.063Z,28.40
2022-08-10T15:40:20.698Z,28.50
2022-08-10T15:42:42.017Z,27.70
2022-08-10T15:45:19.429Z,27.60
2022-08-10T15:48:00.538Z,27.80
2022-08-10T15:50:40.053Z,27.60
2022-08-10T15:53:46.828Z,27.70
2022-08-10T15:56:34.503Z,28.00
2022-08-10T15:59:16.936Z,27.70
2022-08-10T16:02:12.462Z,28.00
2022-08-10T16:04:48.462Z,28.00
2022-08-10T16:07:49.806Z,27.90
2022-08-10T16:10:25.697Z,28.00
2022-08-10T16:14:00.814Z,27.80
2022-08-10T16:16:03.121Z,27.50
2022-08-10T16:18:34.568Z,27.30
2022-08-10T16:21:06.769Z,27.30
2022-08-10T16:23:39.218Z,27.30
2022-08-10T16:26:14.985Z,27.40
2022-08-10T16:28:55.154Z,27.10
2022-08-10T16:31:30.282Z,26.90
2022-08-10T16:34:00.165Z,26.70
2022-08-10T16:36:40.920Z,26.60
2022-08-10T16:39:15.796Z,26.50
2022-08-10T16:42:05.961Z,26.40
2022-08-10T16:44:41.501Z,26.40
2022-08-10T16:47:10.765Z,26.20
2022-08-10T16:49:40.005Z,26.10
2022-08-10T16:52:09.658Z,25.90
2022-08-10T16:54:39.382Z,25.90
2022-08-10T16:57:09.915Z,25.90
2022-08-10T16:59:38.771Z,25.90
2022-08-10T17:02:07.374Z,25.70
2022-08-10T17:04:36.564Z,25.40
2022-08-10T17:07:08.198Z,25.30
2022-08-10T17:09:37.552Z,25.20
2022-08-10T17:12:13.818Z,25.10
2022-08-10T17:14:42.798Z,25.10
2022-08-10T17:17:18.622Z,24.70
2022-08-10T17:19:45.757Z,24.80
2022-08-10T17:22:21.638Z,24.90
2022-08-10T17:24:55.237Z,24.80
2022-08-10T17:28:05.222Z,24.90
2022-08-10T17:30:16.159Z,24.70
2022-08-10T17:33:12.352Z,24.70
2022-08-10T17:35:41.751Z,24.50
2022-08-10T17:38:10.782Z,24.40
2022-08-10T17:40:51.497Z,24.30
2022-08-10T17:44:01.555Z,24.30
2022-08-10T17:46:14.060Z,24.10
2022-08-10T17:48:43.279Z,24.00
2022-08-10T17:51:13.931Z,23.90
2022-08-10T17:53:49.998Z,23.80
2022-08-10T17:56:19.537Z,23.80
2022-08-10T17:58:53.765Z,23.70
2022-08-10T18:01:41.598Z,23.70
2022-08-10T18:04:17.997Z,23.60
2022-08-10T18:06:56.690Z,23.50
2022-08-10T18:09:41.354Z,23.50
2022-08-10T18:12:38.675Z,23.40
2022-08-10T18:15:12.354Z,23.40
2022-08-10T18:17:44.896Z,23.30
2022-08-10T18:20:13.138Z,23.20
2022-08-10T18:22:44.937Z,23.10
2022-08-10T18:25:21.007Z,23.10
2022-08-10T18:28:01.780Z,23.00
2022-08-10T18:30:45.412Z,22.90
2022-08-10T18:33:15.204Z,22.70
2022-08-10T18:35:46.313Z,22.70
2022-08-10T18:38:17.067Z,22.60
2022-08-10T18:40:53.990Z,22.50
2022-08-10T18:44:07.432Z,22.50
2022-08-10T18:46:29.648Z,22.50
2022-08-10T18:49:03.261Z,22.40
2022-08-10T18:51:46.151Z,22.40
2022-08-10T18:54:39.002Z,22.30
2022-08-10T18:57:57.724Z,22.20
2022-08-10T19:00:49.192Z,22.20
2022-08-10T19:03:53.710Z,22.10
2022-08-10T19:06:41.102Z,22.00
2022-08-10T19:09:46.712Z,22.00
2022-08-10T19:12:36.520Z,21.90
2022-08-10T19:15:51.801Z,21.90
2022-08-10T19:18:42.220Z,21.80
2022-08-10T19:21:09.388Z,21.80
2022-08-10T19:24:04.750Z,21.70
2022-08-10T19:27:13.058Z,21.70
2022-08-10T19:30:13.412Z,21.60
2022-08-10T19:32:55.501Z,21.60
2022-08-10T19:36:03.641Z,21.60
2022-08-10T19:38:35.067Z,21.60
2022-08-10T19:41:20.803Z,21.50
2022-08-10T19:44:11.509Z,21.40
2022-08-10T19:46:44.050Z,21.30
2022-08-10T19:49:30.102Z,21.30
2022-08-10T19:52:11.040Z,21.30
2022-08-10T19:55:17.586Z,21.20
2022-08-10T19:58:03.034Z,21.20
2022-08-10T20:00:39.257Z,21.10
2022-08-10T20:03:26.931Z,21.10
2022-08-10T20:06:22.676Z,21.00
2022-08-10T20:09:23.273Z,21.00
2022-08-10T20:12:10.596Z,21.00
2022-08-10T20:15:09.992Z,20.90
2022-08-10T20:18:14.050Z,20.90
2022-08-10T20:20:48.819Z,20.80
2022-08-10T20:23:28.444Z,20.90
2022-08-10T20:26:00.789Z,20.80
2022-08-10T20:28:34.385Z,20.80
2022-08-10T20:31:17.723Z,20.80
2022-08-10T20:34:04.186Z,20.70
2022-08-10T20:36:57.323Z,20.80
2022-08-10T20:39:37.334Z,20.60
2022-08-10T20:42:16.932Z,20.50
2022-08-10T20:45:02.793Z,20.60
2022-08-10T20:47:54.481Z,20.60
2022-08-10T20:50:36.911Z,20.60
2022-08-10T20:53:11.236Z,20.60
2022-08-10T20:56:12.762Z,20.60
2022-08-10T20:58:54.761Z,20.60
2022-08-10T21:02:11.251Z,20.60
2022-08-10T21:04:38.886Z,20.40
2022-08-10T21:07:57.809Z,20.30
2022-08-10T21:10:43.496Z,20.30
2022-08-10T21:13:19.477Z,20.20
2022-08-10T21:15:57.971Z,20.10
2022-08-10T21:19:08.706Z,20.10
2022-08-10T21:22:05.303Z,20.00
2022-08-10T21:24:52.948Z,20.00
2022-08-10T21:27:36.117Z,20.00
2022-08-10T21:30:12.250Z,20.00
2022-08-10T21:32:48.872Z,20.00
2022-08-10T21:35:42.738Z,20.00
2022-08-10T21:38:31.275Z,20.00
2022-08-10T21:41:57.653Z,20.00
2022-08-10T21:44:51.130Z,20.00
2022-08-10T21:48:06.985Z,20.00
2022-08-10T21:51:08.794Z,19.90
2022-08-10T21:54:01.085Z,19.90
2022-08-10T21:57:22.363Z,19.90
2022-08-10T22:00:17.046Z,20.00
2022-08-10T22:03:04.009Z,20.00
2022-08-10T22:05:55.404Z,20.00
2022-08-10T22:09:00.718Z,20.00
2022-08-10T22:11:50.363Z,20.10
2022-08-10T22:14:47.849Z,20.10
2022-08-10T22:18:00.990Z,20.20
2022-08-10T22:20:44.327Z,20.20
2022-08-10T22:23:32.768Z,20.30
2022-08-10T22:27:01.446Z,20.30
2022-08-10T22:29:57.710Z,20.30
2022-08-10T22:33:03.181Z,20.30
2022-08-10T22:36:07.587Z,20.30
2022-08-10T22:39:12.574Z,20.20
2022-08-10T22:42:09.309Z,20.20
2022-08-10T22:45:01.703Z,20.20
2022-08-10T22:47:51.788Z,20.20
2022-08-10T22:50:26.688Z,20.10
2022-08-10T22:53:08.024Z,20.10
2022-08-10T22:55:57.562Z,20.10
2022-08-10T22:58:42.572Z,20.10
2022-08-10T23:01:42.216Z,20.10
2022-08-10T23:04:47.552Z,20.10
2022-08-10T23:07:17.362Z,20.00
2022-08-10T23:09:56.084Z,20.00
2022-08-10T23:12:58.240Z,20.00
2022-08-10T23:15:51.674Z,20.00
2022-08-10T23:18:47.599Z,20.10
2022-08-10T23:21:17.804Z,20.00
2022-08-10T23:23:45.831Z,20.10
2022-08-10T23:26:21.632Z,20.00
2022-08-10T23:28:59.914Z,20.00
2022-08-10T23:31:50.425Z,20.00
2022-08-10T23:34:31.319Z,20.00
2022-08-10T23:37:00.846Z,19.90
2022-08-10T23:39:40.759Z,20.00
2022-08-10T23:42:17.386Z,20.00
2022-08-10T23:44:51.345Z,20.00
2022-08-10T23:47:23.268Z,19.90
2022-08-10T23:49:58.473Z,20.00
2022-08-10T23:52:32.240Z,20.00
2022-08-10T23:55:07.738Z,19.90
2022-08-10T23:57:38.442Z,19.80
